createdAt,value
2019-01-20T00:00:33.940Z,123.97
2019-01-20T00:03:03.048Z,128.20
2019-01-20T00:05:32.314Z,153.57
2019-01-20T00:08:01.519Z,153.43
2019-01-20T00:10:31.878Z,151.47
2019-01-20T00:13:01.611Z,132.67
2019-01-20T00:15:33.487Z,125.10
2019-01-20T00:18:04.143Z,117.53
2019-01-20T00:20:33.580Z,114.00
2019-01-20T00:23:04.588Z,113.17
2019-01-20T00:25:34.461Z,111.80
2019-01-20T00:28:03.666Z,113.77
2019-01-20T00:30:33.215Z,112.63
2019-01-20T00:33:02.447Z,122.73
2019-01-20T00:35:31.625Z,119.77
2019-01-20T00:38:01.172Z,114.10
2019-01-20T00:40:30.406Z,121.43
2019-01-20T00:42:59.584Z,116.03
2019-01-20T00:45:29.161Z,110.27
2019-01-20T00:47:58.433Z,105.10
2019-01-20T00:50:27.599Z,109.67
2019-01-20T00:52:57.071Z,105.47
2019-01-20T00:55:26.264Z,110.53
2019-01-20T00:57:55.464Z,112.43
2019-01-20T01:00:28.244Z,124.17
2019-01-20T01:02:57.358Z,108.10
2019-01-20T01:05:26.598Z,102.07
2019-01-20T01:07:55.759Z,100.53
2019-01-20T01:10:24.844Z,105.43
2019-01-20T01:12:54.448Z,106.93
2019-01-20T01:15:23.687Z,109.93
2019-01-20T01:17:52.939Z,106.73
2019-01-20T01:20:22.133Z,109.67
2019-01-20T01:22:51.313Z,115.60
2019-01-20T01:25:33.512Z,120.23
2019-01-20T01:28:02.743Z,137.23
2019-01-20T01:30:31.876Z,139.70
2019-01-20T01:33:00.983Z,134.60
2019-01-20T01:35:30.102Z,121.03
2019-01-20T01:41:44.914Z,100.23
2019-01-20T01:44:15.217Z,97.40
2019-01-20T01:46:44.335Z,138.20
2019-01-20T01:49:13.524Z,129.97
2019-01-20T01:51:42.709Z,126.80
2019-01-20T01:54:11.930Z,128.57
2019-01-20T01:56:41.019Z,121.20
2019-01-20T01:59:10.186Z,128.57
2019-01-20T02:01:40.794Z,117.20
2019-01-20T02:04:09.957Z,116.37
2019-01-20T02:06:39.163Z,115.53
2019-01-20T02:09:08.993Z,116.20
2019-01-20T02:11:38.154Z,114.53
2019-01-20T02:14:07.247Z,121.20
2019-01-20T02:16:36.458Z,123.37
2019-01-20T02:19:05.642Z,150.50
2019-01-20T02:21:34.729Z,182.83
2019-01-20T02:24:03.922Z,137.73
2019-01-20T02:26:33.079Z,129.63
2019-01-20T02:29:02.205Z,120.33
2019-01-20T02:31:31.730Z,110.57
2019-01-20T02:34:01.000Z,107.97
2019-01-20T02:36:30.270Z,107.37
2019-01-20T02:38:59.487Z,118.07
2019-01-20T02:41:28.669Z,112.23
2019-01-20T02:43:57.828Z,106.20
2019-01-20T02:46:27.018Z,110.10
2019-01-20T02:48:56.205Z,110.63
2019-01-20T02:51:25.411Z,115.63
2019-01-20T02:53:54.626Z,105.93
2019-01-20T02:56:23.825Z,101.90
2019-01-20T02:58:53.045Z,105.83
2019-01-20T03:01:22.213Z,106.10
2019-01-20T03:03:51.405Z,94.33
2019-01-20T03:06:20.932Z,75.47
2019-01-20T03:08:50.020Z,80.93
2019-01-20T03:11:19.193Z,81.13
2019-01-20T03:13:49.343Z,89.77
2019-01-20T03:16:18.520Z,87.03
2019-01-20T03:18:47.919Z,84.47
2019-01-20T03:21:17.095Z,80.53
2019-01-20T03:23:46.268Z,78.53
2019-01-20T03:26:15.486Z,84.03
2019-01-20T03:28:45.171Z,82.50
2019-01-20T03:31:14.368Z,86.73
2019-01-20T03:33:43.470Z,90.67
2019-01-20T03:36:12.668Z,84.50
2019-01-20T03:38:41.847Z,90.00
2019-01-20T03:41:11.020Z,90.50
2019-01-20T03:43:40.232Z,93.00
2019-01-20T03:46:09.391Z,92.03
2019-01-20T03:48:38.547Z,93.17
2019-01-20T03:51:08.619Z,94.93
2019-01-20T03:53:38.228Z,96.90
2019-01-20T03:56:07.416Z,96.77
2019-01-20T03:58:36.584Z,94.23
2019-01-20T04:01:05.762Z,88.70
2019-01-20T04:03:34.956Z,93.40
2019-01-20T04:06:04.140Z,93.73
2019-01-20T04:08:33.226Z,97.80
2019-01-20T04:11:02.412Z,90.70
2019-01-20T04:13:31.583Z,91.40
2019-01-20T04:16:01.749Z,86.63
2019-01-20T04:18:30.944Z,86.93
2019-01-20T04:21:00.120Z,85.00
2019-01-20T04:23:29.343Z,84.93
2019-01-20T04:25:58.521Z,77.40
2019-01-20T04:28:27.710Z,76.90
2019-01-20T04:30:56.938Z,83.27
2019-01-20T04:33:26.109Z,87.83
2019-01-20T04:35:55.262Z,88.87
2019-01-20T04:38:24.458Z,90.80
2019-01-20T04:40:53.555Z,88.30
2019-01-20T04:43:23.382Z,92.47
2019-01-20T04:45:52.534Z,85.87
2019-01-20T04:48:21.715Z,91.50
2019-01-20T04:50:50.903Z,84.33
2019-01-20T04:53:20.067Z,84.73
2019-01-20T04:55:49.232Z,83.23
2019-01-20T04:58:18.758Z,83.87
2019-01-20T05:00:47.911Z,98.60
2019-01-20T05:03:17.079Z,96.40
2019-01-20T05:05:46.244Z,90.23
2019-01-20T05:08:15.403Z,85.13
2019-01-20T05:10:44.530Z,92.93
2019-01-20T05:13:13.702Z,92.00
2019-01-20T05:15:42.896Z,101.10
2019-01-20T05:18:12.064Z,165.17
2019-01-20T05:20:41.172Z,217.23
2019-01-20T05:23:10.384Z,155.83
2019-01-20T05:25:39.540Z,126.87
2019-01-20T05:28:08.753Z,115.60
2019-01-20T05:30:37.859Z,121.83
2019-01-20T05:33:07.336Z,108.17
2019-01-20T05:35:36.547Z,106.27
2019-01-20T05:38:05.749Z,115.70
2019-01-20T05:40:34.912Z,138.10
2019-01-20T05:43:04.185Z,110.67
2019-01-20T05:45:33.372Z,95.60
2019-01-20T05:48:02.582Z,96.33
2019-01-20T05:50:31.746Z,104.83
2019-01-20T05:53:00.935Z,113.93
2019-01-20T05:55:30.147Z,127.37
2019-01-20T05:57:59.519Z,117.00
2019-01-20T06:00:30.902Z,106.13
2019-01-20T06:03:00.123Z,100.57
2019-01-20T06:05:29.314Z,79.17
2019-01-20T06:07:58.539Z,84.07
2019-01-20T06:10:27.749Z,85.87
2019-01-20T06:12:56.937Z,82.00
2019-01-20T06:15:26.138Z,90.77
2019-01-20T06:17:55.248Z,85.33
2019-01-20T06:20:24.482Z,82.87
2019-01-20T06:22:53.651Z,77.37
2019-01-20T06:25:22.824Z,94.10
2019-01-20T06:27:52.051Z,97.67
2019-01-20T06:30:23.766Z,166.20
2019-01-20T06:32:52.870Z,169.13
2019-01-20T06:35:22.102Z,118.77
2019-01-20T06:37:51.301Z,119.33
2019-01-20T06:40:20.531Z,119.67
2019-01-20T06:42:49.782Z,121.23
2019-01-20T06:45:19.002Z,129.20
2019-01-20T06:47:48.201Z,144.67
2019-01-20T06:50:17.477Z,109.83
2019-01-20T06:52:46.676Z,112.97
2019-01-20T06:55:15.878Z,92.50
2019-01-20T06:57:45.484Z,87.20
2019-01-20T07:00:19.555Z,90.73
2019-01-20T07:02:48.741Z,93.40
2019-01-20T07:05:17.941Z,109.97
2019-01-20T07:07:47.140Z,104.57
2019-01-20T07:10:16.945Z,105.27
2019-01-20T07:12:46.166Z,98.27
2019-01-20T07:15:20.246Z,121.20
2019-01-20T07:17:49.427Z,89.90
2019-01-20T07:20:18.646Z,82.77
2019-01-20T07:22:47.856Z,79.43
2019-01-20T07:25:17.140Z,79.87
2019-01-20T07:27:46.389Z,81.20
2019-01-20T07:30:17.664Z,91.40
2019-01-20T07:32:46.868Z,91.80
2019-01-20T07:35:16.016Z,94.10
2019-01-20T07:37:45.782Z,81.03
2019-01-20T07:40:16.027Z,89.03
2019-01-20T07:42:45.227Z,116.47
2019-01-20T07:45:15.195Z,119.70
2019-01-20T07:47:44.388Z,95.33
2019-01-20T07:50:18.357Z,85.87
2019-01-20T07:52:47.569Z,86.60
2019-01-20T07:55:16.775Z,79.40
2019-01-20T07:57:45.978Z,85.07
2019-01-20T08:00:17.126Z,89.43
2019-01-20T08:02:46.370Z,91.43
2019-01-20T08:05:15.560Z,96.97
2019-01-20T08:07:44.784Z,100.30
2019-01-20T08:10:16.716Z,110.13
2019-01-20T08:12:45.938Z,108.20
2019-01-20T08:15:15.346Z,108.60
2019-01-20T08:17:44.919Z,111.93
2019-01-20T08:20:15.994Z,116.67
2019-01-20T08:22:45.197Z,119.30
2019-01-20T08:25:16.432Z,117.27
2019-01-20T08:27:45.635Z,123.30
2019-01-20T08:30:16.969Z,122.13
2019-01-20T08:32:48.578Z,95.00
2019-01-20T08:35:17.775Z,87.50
2019-01-20T08:37:46.991Z,89.50
2019-01-20T08:40:18.684Z,92.37
2019-01-20T08:42:47.923Z,94.67
2019-01-20T08:45:38.433Z,92.37
2019-01-20T08:48:13.190Z,86.80
2019-01-20T08:50:42.403Z,106.60
2019-01-20T08:53:11.683Z,127.77
2019-01-20T08:55:41.388Z,156.50
2019-01-20T08:58:11.281Z,149.00
2019-01-20T09:00:40.696Z,126.50
2019-01-20T09:03:10.043Z,118.63
2019-01-20T09:05:40.703Z,120.47
2019-01-20T09:08:10.067Z,152.33
2019-01-20T09:10:39.374Z,122.70
2019-01-20T09:13:09.782Z,96.73
2019-01-20T09:15:39.100Z,85.03
2019-01-20T09:18:08.322Z,83.80
2019-01-20T09:20:37.581Z,97.67
2019-01-20T09:23:06.823Z,100.43
2019-01-20T09:25:36.656Z,114.73
2019-01-20T09:28:08.152Z,99.10
2019-01-20T09:30:37.379Z,102.77
2019-01-20T09:33:06.585Z,87.40
2019-01-20T09:35:35.856Z,104.60
2019-01-20T09:38:05.957Z,80.70
2019-01-20T09:40:35.166Z,111.70
2019-01-20T09:43:04.671Z,110.30
2019-01-20T09:45:34.819Z,116.73
2019-01-20T09:48:04.290Z,114.37
2019-01-20T09:50:33.552Z,119.40
2019-01-20T09:53:02.782Z,112.40
2019-01-20T09:55:33.635Z,119.47
2019-01-20T09:58:03.167Z,99.90
2019-01-20T10:00:32.874Z,103.60
2019-01-20T10:03:02.299Z,85.37
2019-01-20T10:05:31.543Z,101.17
2019-01-20T10:08:00.797Z,107.53
2019-01-20T10:10:29.988Z,76.93
2019-01-20T10:12:59.188Z,78.23
2019-01-20T10:15:28.786Z,100.07
2019-01-20T10:17:57.993Z,76.03
2019-01-20T10:20:31.854Z,69.00
2019-01-20T10:23:01.066Z,67.57
2019-01-20T10:25:30.689Z,69.53
2019-01-20T10:27:59.957Z,71.47
2019-01-20T10:30:31.216Z,75.53
2019-01-20T10:33:00.466Z,53.20
2019-01-20T10:35:34.033Z,55.53
2019-01-20T10:38:05.687Z,60.97
2019-01-20T10:40:36.101Z,57.43
2019-01-20T10:43:05.378Z,60.03
2019-01-20T10:45:34.641Z,58.20
2019-01-20T10:48:03.892Z,55.37
2019-01-20T10:50:33.721Z,54.53
2019-01-20T10:53:02.913Z,58.57
2019-01-20T10:55:32.610Z,55.97
2019-01-20T10:58:03.568Z,56.77
2019-01-20T11:00:36.336Z,53.30
2019-01-20T11:03:05.921Z,46.23
2019-01-20T11:05:35.158Z,52.17
2019-01-20T11:08:04.668Z,75.13
2019-01-20T11:10:34.648Z,54.30
2019-01-20T11:13:07.652Z,56.10
2019-01-20T11:15:36.860Z,48.40
2019-01-20T11:18:06.146Z,46.10
2019-01-20T11:20:36.610Z,45.00
2019-01-20T11:23:05.979Z,45.00
2019-01-20T11:25:38.164Z,45.37
2019-01-20T11:28:07.452Z,40.07
2019-01-20T11:30:36.685Z,59.77
2019-01-20T11:33:06.224Z,48.73
2019-01-20T11:35:36.866Z,46.13
2019-01-20T11:38:06.059Z,59.83
2019-01-20T11:40:35.291Z,43.13
2019-01-20T11:43:04.547Z,36.33
2019-01-20T11:45:35.816Z,34.60
2019-01-20T11:48:17.593Z,36.77
2019-01-20T11:50:48.085Z,38.67
2019-01-20T11:53:17.389Z,35.53
2019-01-20T11:55:46.620Z,34.43
2019-01-20T11:58:17.502Z,36.00
2019-01-20T12:03:55.959Z,53.80
2019-01-20T12:06:25.205Z,46.97
2019-01-20T12:08:54.477Z,45.10
2019-01-20T12:11:23.781Z,44.70
2019-01-20T12:13:53.391Z,40.80
2019-01-20T12:16:22.614Z,43.07
2019-01-20T12:18:52.060Z,58.03
2019-01-20T12:21:21.354Z,99.00
2019-01-20T12:23:51.648Z,50.60
2019-01-20T12:26:20.906Z,63.03
2019-01-20T12:28:50.164Z,62.03
2019-01-20T12:31:19.457Z,60.63
2019-01-20T12:33:48.883Z,59.77
2019-01-20T12:36:18.086Z,56.43
2019-01-20T12:38:47.342Z,62.33
2019-01-20T12:41:16.714Z,61.20
2019-01-20T12:43:46.560Z,62.77
2019-01-20T12:46:17.914Z,58.27
2019-01-20T12:48:47.145Z,62.97
2019-01-20T12:51:16.413Z,62.20
2019-01-20T12:53:46.828Z,63.43
2019-01-20T12:56:16.027Z,60.67
2019-01-20T12:58:46.749Z,59.97
2019-01-20T13:01:15.977Z,62.53
2019-01-20T13:03:45.246Z,66.63
2019-01-20T13:06:14.478Z,56.13
2019-01-20T13:08:43.704Z,52.67
2019-01-20T13:11:12.981Z,55.57
2019-01-20T13:13:42.269Z,62.00
2019-01-20T13:16:11.554Z,56.67
2019-01-20T13:18:41.224Z,53.33
2019-01-20T13:21:10.815Z,54.53
2019-01-20T13:23:40.125Z,55.03
2019-01-20T13:26:09.418Z,62.47
2019-01-20T13:28:38.674Z,62.17
2019-01-20T13:31:07.884Z,91.97
2019-01-20T13:33:37.329Z,65.17
2019-01-20T13:36:07.840Z,59.60
2019-01-20T13:38:37.088Z,54.83
2019-01-20T13:41:19.602Z,79.70
2019-01-20T13:43:49.311Z,76.70
2019-01-20T13:46:19.417Z,65.77
2019-01-20T13:48:48.851Z,70.73
2019-01-20T13:51:18.242Z,84.87
2019-01-20T13:53:47.482Z,75.83
2019-01-20T13:56:17.097Z,60.00
2019-01-20T13:58:46.419Z,77.43
2019-01-20T14:01:18.388Z,88.03
2019-01-20T14:03:47.838Z,73.67
2019-01-20T14:06:17.016Z,80.87
2019-01-20T14:08:46.252Z,103.87
2019-01-20T14:11:15.493Z,74.70
2019-01-20T14:13:47.002Z,77.80
2019-01-20T14:16:16.280Z,66.23
2019-01-20T14:18:50.257Z,62.30
2019-01-20T14:21:19.521Z,58.43
2019-01-20T14:23:49.340Z,56.80
2019-01-20T14:26:20.000Z,60.13
2019-01-20T14:28:49.260Z,58.37
2019-01-20T14:31:18.463Z,62.00
2019-01-20T14:33:47.679Z,70.40
2019-01-20T14:36:18.272Z,67.20
2019-01-20T14:38:47.450Z,74.53
2019-01-20T14:41:16.669Z,84.70
2019-01-20T14:43:45.949Z,106.20
2019-01-20T14:46:15.230Z,101.13
2019-01-20T14:48:45.768Z,90.50
2019-01-20T14:51:16.605Z,91.63
2019-01-20T14:53:46.959Z,145.40
2019-01-20T14:56:16.223Z,204.50
2019-01-20T14:58:48.183Z,91.23
2019-01-20T15:01:17.533Z,85.67
2019-01-20T15:03:46.884Z,95.00
2019-01-20T15:06:16.931Z,95.80
2019-01-20T15:08:46.184Z,75.80
2019-01-20T15:11:15.447Z,81.40
2019-01-20T15:13:44.841Z,83.63
2019-01-20T15:16:14.136Z,94.03
2019-01-20T15:18:43.449Z,100.23
2019-01-20T15:21:12.660Z,100.17
2019-01-20T15:23:41.921Z,94.80
2019-01-20T15:26:11.503Z,99.27
2019-01-20T15:28:41.361Z,102.53
2019-01-20T15:31:10.582Z,98.10
2019-01-20T15:33:39.832Z,94.93
2019-01-20T15:36:09.876Z,71.77
2019-01-20T15:38:39.116Z,79.67
2019-01-20T15:41:08.360Z,89.37
2019-01-20T15:43:37.658Z,98.23
2019-01-20T15:46:06.919Z,104.97
2019-01-20T15:48:36.128Z,104.83
2019-01-20T15:51:05.510Z,122.17
2019-01-20T15:53:34.757Z,172.27
2019-01-20T15:56:04.205Z,186.50
2019-01-20T15:58:33.435Z,275.23
2019-01-20T16:01:03.026Z,302.27
2019-01-20T16:03:33.295Z,281.57
2019-01-20T16:06:02.563Z,212.63
2019-01-20T16:08:31.802Z,208.30
2019-01-20T16:11:01.100Z,212.30
2019-01-20T16:13:30.399Z,175.30
2019-01-20T16:16:00.332Z,239.57
2019-01-20T16:18:29.971Z,286.83
2019-01-20T16:21:01.392Z,251.60
2019-01-20T16:23:30.738Z,266.70
2019-01-20T16:26:00.003Z,240.60
2019-01-20T16:28:31.372Z,226.50
2019-01-20T16:31:00.638Z,185.63
2019-01-20T16:33:29.871Z,199.07
2019-01-20T16:35:59.162Z,235.13
2019-01-20T16:38:28.479Z,216.50
2019-01-20T16:40:58.991Z,239.67
2019-01-20T16:43:28.389Z,216.10
2019-01-20T16:45:57.705Z,182.23
2019-01-20T16:48:27.436Z,169.03
2019-01-20T16:50:59.077Z,174.33
2019-01-20T16:53:28.478Z,139.00
2019-01-20T16:55:58.198Z,142.13
2019-01-20T16:58:27.479Z,140.30
2019-01-20T17:00:56.760Z,135.73
2019-01-20T17:03:26.351Z,120.23
2019-01-20T17:05:55.605Z,148.63
2019-01-20T17:08:25.721Z,178.83
2019-01-20T17:10:56.105Z,228.37
2019-01-20T17:13:25.635Z,201.73
2019-01-20T17:15:54.879Z,197.20
2019-01-20T17:18:24.167Z,162.40
2019-01-20T17:20:53.452Z,167.63
2019-01-20T17:23:22.682Z,161.77
2019-01-20T17:25:51.962Z,138.63
2019-01-20T17:28:21.239Z,134.50
2019-01-20T17:30:50.472Z,131.57
2019-01-20T17:33:19.819Z,157.43
2019-01-20T17:35:49.953Z,195.23
2019-01-20T17:38:19.214Z,150.00
2019-01-20T17:40:49.314Z,142.47
2019-01-20T17:43:18.569Z,138.47
2019-01-20T17:45:50.038Z,139.17
2019-01-20T17:48:20.057Z,142.20
2019-01-20T17:50:49.954Z,137.67
2019-01-20T17:53:19.230Z,167.40
2019-01-20T17:55:48.559Z,159.97
2019-01-20T17:58:18.514Z,158.73
2019-01-20T18:00:50.977Z,135.67
2019-01-20T18:03:20.251Z,174.47
2019-01-20T18:05:49.849Z,224.80
2019-01-20T18:08:19.585Z,204.83
2019-01-20T18:10:48.917Z,210.83
2019-01-20T18:13:18.366Z,232.37
2019-01-20T18:15:54.068Z,231.13
2019-01-20T18:18:18.710Z,241.43
2019-01-20T18:20:48.003Z,264.60
2019-01-20T18:23:17.884Z,259.30
2019-01-20T18:25:47.697Z,215.87
2019-01-20T18:28:17.080Z,209.23
2019-01-20T18:30:46.699Z,209.50
2019-01-20T18:33:16.211Z,272.63
2019-01-20T18:35:45.756Z,242.97
2019-01-20T18:38:15.065Z,217.70
2019-01-20T18:40:44.316Z,200.37
2019-01-20T18:43:13.521Z,195.67
2019-01-20T18:45:43.142Z,185.20
2019-01-20T18:48:12.433Z,319.07
2019-01-20T18:50:41.670Z,262.30
2019-01-20T18:53:10.906Z,264.33
2019-01-20T18:55:40.108Z,272.13
2019-01-20T18:58:09.379Z,262.93
2019-01-20T19:00:44.463Z,231.03
2019-01-20T19:03:13.721Z,198.83
2019-01-20T19:05:42.995Z,157.87
2019-01-20T19:08:12.416Z,241.80
2019-01-20T19:10:41.687Z,224.73
2019-01-20T19:13:12.765Z,148.23
2019-01-20T19:15:42.229Z,156.23
2019-01-20T19:18:18.711Z,117.57
2019-01-20T19:20:43.146Z,227.97
2019-01-20T19:23:13.766Z,342.57
2019-01-20T19:25:43.100Z,298.70
2019-01-20T19:28:12.633Z,301.53
2019-01-20T19:30:44.417Z,234.50
2019-01-20T19:33:13.793Z,230.13
2019-01-20T19:35:43.005Z,297.37
2019-01-20T19:38:12.264Z,348.57
2019-01-20T19:40:41.496Z,298.17
2019-01-20T19:43:10.809Z,259.90
2019-01-20T19:45:40.463Z,284.40
2019-01-20T19:48:15.691Z,159.83
2019-01-20T19:50:44.141Z,177.13
2019-01-20T19:53:13.440Z,178.30
2019-01-20T19:55:42.814Z,262.80
2019-01-20T19:58:12.377Z,300.23
2019-01-20T20:00:41.584Z,335.33
2019-01-20T20:03:11.828Z,337.87
2019-01-20T20:05:42.356Z,265.60
2019-01-20T20:08:11.647Z,295.13
2019-01-20T20:10:40.887Z,267.80
2019-01-20T20:13:10.089Z,251.87
2019-01-20T20:15:39.436Z,225.83
2019-01-20T20:18:08.686Z,193.83
2019-01-20T20:20:37.940Z,170.80
2019-01-20T20:23:07.187Z,145.00
2019-01-20T20:25:36.471Z,154.77
2019-01-20T20:28:05.966Z,155.73
2019-01-20T20:30:37.021Z,123.57
2019-01-20T20:33:06.769Z,109.87
2019-01-20T20:35:36.078Z,125.40
2019-01-20T20:38:05.357Z,155.03
2019-01-20T20:40:34.675Z,146.77
2019-01-20T20:43:03.909Z,204.57
2019-01-20T20:45:33.754Z,136.83
2019-01-20T20:48:03.031Z,144.30
2019-01-20T20:50:32.350Z,183.57
2019-01-20T20:53:01.617Z,190.03
2019-01-20T20:55:31.188Z,201.93
2019-01-20T20:58:00.591Z,155.53
2019-01-20T21:00:36.205Z,134.83
2019-01-20T21:03:09.508Z,145.67
2019-01-20T21:05:38.908Z,154.30
2019-01-20T21:08:13.484Z,181.33
2019-01-20T21:10:43.606Z,184.10
2019-01-20T21:13:14.884Z,173.40
2019-01-20T21:15:44.244Z,142.20
2019-01-20T21:18:13.603Z,161.60
2019-01-20T21:20:43.322Z,167.83
2019-01-20T21:23:12.762Z,135.73
2019-01-20T21:25:42.095Z,127.07
2019-01-20T21:28:11.461Z,120.93
2019-01-20T21:30:41.861Z,134.03
2019-01-20T21:33:11.086Z,133.63
2019-01-20T21:35:40.331Z,123.57
2019-01-20T21:38:09.533Z,103.60
2019-01-20T21:40:39.259Z,108.43
2019-01-20T21:43:08.568Z,132.57
2019-01-20T21:45:38.210Z,199.77
2019-01-20T21:48:07.539Z,281.40
2019-01-20T21:50:36.739Z,184.63
2019-01-20T21:57:07.180Z,116.07
2019-01-20T21:59:36.520Z,128.73
2019-01-20T22:02:05.696Z,97.23
2019-01-20T22:04:35.670Z,96.20
2019-01-20T22:07:04.902Z,113.03
2019-01-20T22:09:34.084Z,73.90
2019-01-20T22:12:03.297Z,96.67
2019-01-20T22:14:33.143Z,91.90
2019-01-20T22:17:02.315Z,85.03
2019-01-20T22:19:35.790Z,89.10
2019-01-20T22:22:08.490Z,120.23
2019-01-20T22:24:37.724Z,83.17
2019-01-20T22:27:06.939Z,93.23
2019-01-20T22:29:37.127Z,96.17
2019-01-20T22:32:06.894Z,81.77
2019-01-20T22:34:36.071Z,85.63
2019-01-20T22:37:08.850Z,132.37
2019-01-20T22:39:38.031Z,83.70
2019-01-20T22:42:12.261Z,86.30
2019-01-20T22:44:41.404Z,93.63
2019-01-20T22:47:10.618Z,126.13
2019-01-20T22:49:42.886Z,85.57
2019-01-20T22:52:12.045Z,87.47
2019-01-20T22:54:41.269Z,109.23
2019-01-20T22:57:10.492Z,147.80
2019-01-20T22:59:39.665Z,100.57
2019-01-20T23:02:08.833Z,94.73
2019-01-20T23:04:38.465Z,116.07
2019-01-20T23:07:07.707Z,113.87
2019-01-20T23:09:37.002Z,102.97
2019-01-20T23:12:06.170Z,147.73
2019-01-20T23:14:35.346Z,87.53
2019-01-20T23:17:07.913Z,115.03
2019-01-20T23:19:35.366Z,99.90
2019-01-20T23:22:04.531Z,73.87
2019-01-20T23:24:34.019Z,72.07
2019-01-20T23:27:03.124Z,65.67
2019-01-20T23:29:32.256Z,67.10
2019-01-20T23:32:01.447Z,95.87
2019-01-20T23:34:30.613Z,68.43
2019-01-20T23:36:59.729Z,82.97
2019-01-20T23:39:28.896Z,76.87
2019-01-20T23:41:58.076Z,62.70
2019-01-20T23:44:28.788Z,63.00
2019-01-20T23:46:58.544Z,60.37
2019-01-20T23:49:27.724Z,57.57
2019-01-20T23:51:56.992Z,66.20
2019-01-20T23:54:26.213Z,60.57
2019-01-20T23:56:55.366Z,240.43
2019-01-20T23:59:24.543Z,106.87
